createdAt,value
2018-09-06T00:00:03.460Z,53.92
2018-09-06T00:02:32.568Z,54.15
2018-09-06T00:05:01.764Z,54.35
2018-09-06T00:07:30.960Z,54.27
2018-09-06T00:10:00.093Z,54.35
2018-09-06T00:12:29.196Z,54.36
2018-09-06T00:14:58.292Z,54.11
2018-09-06T00:17:27.384Z,54.23
2018-09-06T00:19:56.468Z,54.08
2018-09-06T00:22:25.812Z,54.34
2018-09-06T00:24:54.964Z,54.28
2018-09-06T00:27:24.097Z,54.21
2018-09-06T00:29:53.187Z,54.27
2018-09-06T00:32:22.248Z,54.12
2018-09-06T00:34:51.364Z,54.19
2018-09-06T00:37:20.416Z,54.03
2018-09-06T00:39:49.526Z,54.09
2018-09-06T00:42:18.667Z,54.13
2018-09-06T00:44:47.720Z,53.83
2018-09-06T00:47:17.014Z,54.33
2018-09-06T00:49:46.067Z,53.95
2018-09-06T00:52:15.129Z,53.94
2018-09-06T00:54:54.337Z,53.92
2018-09-06T00:57:23.481Z,54.22
2018-09-06T00:59:52.547Z,54.21
2018-09-06T01:02:21.715Z,53.92
2018-09-06T01:04:50.947Z,53.92
2018-09-06T01:07:20.019Z,54.18
2018-09-06T01:09:50.191Z,53.91
2018-09-06T01:12:19.277Z,53.87
2018-09-06T01:14:48.331Z,53.98
2018-09-06T01:17:17.446Z,53.82
2018-09-06T01:19:46.563Z,53.99
2018-09-06T01:22:15.850Z,53.92
2018-09-06T01:24:45.122Z,53.92
2018-09-06T01:27:14.175Z,54.33
2018-09-06T01:29:43.284Z,54.24
2018-09-06T01:32:12.460Z,53.93
2018-09-06T01:34:41.535Z,54.32
2018-09-06T01:37:11.016Z,54.19
2018-09-06T01:39:40.595Z,54.42
2018-09-06T01:42:10.011Z,54.44
2018-09-06T01:44:39.274Z,54.44
2018-09-06T01:47:08.319Z,54.00
2018-09-06T01:49:37.443Z,53.99
2018-09-06T01:52:06.559Z,53.91
2018-09-06T01:54:35.631Z,54.34
2018-09-06T01:57:04.741Z,54.26
2018-09-06T01:59:38.003Z,54.53
2018-09-06T02:02:07.805Z,54.02
2018-09-06T02:04:37.923Z,54.10
2018-09-06T02:07:07.419Z,54.30
2018-09-06T02:09:36.887Z,54.18
2018-09-06T02:12:05.964Z,54.39
2018-09-06T02:14:35.051Z,54.16
2018-09-06T02:17:04.171Z,54.03
2018-09-06T02:19:33.367Z,54.07
2018-09-06T02:22:02.477Z,54.30
2018-09-06T02:24:31.583Z,54.45
2018-09-06T02:27:00.860Z,54.34
2018-09-06T02:29:29.965Z,54.29
2018-09-06T02:31:59.139Z,54.00
2018-09-06T02:34:28.215Z,54.51
2018-09-06T02:36:57.363Z,54.34
2018-09-06T02:39:26.553Z,54.28
2018-09-06T02:41:55.643Z,54.40
2018-09-06T02:44:24.747Z,54.16
2018-09-06T02:46:54.002Z,54.40
2018-09-06T02:49:28.371Z,54.41
2018-09-06T02:51:57.553Z,54.36
2018-09-06T02:54:26.661Z,54.33
2018-09-06T02:56:55.751Z,54.08
2018-09-06T02:59:24.791Z,54.11
2018-09-06T03:01:54.071Z,54.17
2018-09-06T03:04:23.162Z,54.26
2018-09-06T03:06:52.227Z,54.15
2018-09-06T03:09:22.519Z,54.36
2018-09-06T03:11:56.015Z,54.34
2018-09-06T03:14:25.461Z,54.23
2018-09-06T03:16:54.752Z,54.39
2018-09-06T03:19:23.871Z,54.27
2018-09-06T03:21:52.949Z,54.41
2018-09-06T03:24:22.035Z,54.39
2018-09-06T03:26:51.159Z,54.36
2018-09-06T03:29:20.343Z,54.45
2018-09-06T03:31:49.436Z,54.29
2018-09-06T03:34:18.621Z,54.35
2018-09-06T03:36:47.735Z,54.43
2018-09-06T03:39:16.831Z,54.17
2018-09-06T03:41:45.902Z,54.15
2018-09-06T03:44:15.025Z,54.29
2018-09-06T03:46:44.102Z,54.14
2018-09-06T03:49:13.216Z,54.42
2018-09-06T03:51:42.261Z,54.02
2018-09-06T03:54:11.343Z,54.33
2018-09-06T03:56:40.504Z,53.95
2018-09-06T03:59:09.584Z,54.44
2018-09-06T04:01:38.883Z,53.89
2018-09-06T04:04:07.993Z,54.27
2018-09-06T04:06:37.046Z,54.30
2018-09-06T04:09:08.844Z,54.04
2018-09-06T04:11:37.943Z,54.05
2018-09-06T04:14:07.093Z,53.97
2018-09-06T04:16:36.692Z,54.11
2018-09-06T04:19:06.228Z,54.00
2018-09-06T04:21:35.234Z,54.02
2018-09-06T04:24:04.322Z,54.10
2018-09-06T04:26:33.544Z,53.90
2018-09-06T04:29:02.524Z,53.91
2018-09-06T04:31:31.689Z,54.22
2018-09-06T04:34:00.849Z,54.12
2018-09-06T04:36:30.372Z,54.20
2018-09-06T04:38:59.470Z,53.94
2018-09-06T04:41:28.804Z,54.13
2018-09-06T04:43:58.039Z,54.11
2018-09-06T04:46:27.154Z,54.35
2018-09-06T04:48:56.328Z,54.32
2018-09-06T04:51:25.409Z,54.23
2018-09-06T04:53:54.544Z,54.26
2018-09-06T04:56:23.628Z,54.18
2018-09-06T04:58:52.812Z,54.03
2018-09-06T05:01:21.993Z,54.46
2018-09-06T05:03:51.126Z,54.19
2018-09-06T05:06:20.175Z,54.18
2018-09-06T05:08:49.394Z,54.29
2018-09-06T05:11:18.610Z,54.48
2018-09-06T05:13:47.656Z,54.32
2018-09-06T05:16:16.766Z,54.06
2018-09-06T05:18:45.880Z,54.32
2018-09-06T05:21:14.948Z,54.09
2018-09-06T05:23:44.036Z,54.52
2018-09-06T05:26:13.160Z,54.28
2018-09-06T05:28:42.365Z,54.06
2018-09-06T05:31:11.476Z,54.45
2018-09-06T05:33:40.528Z,54.04
2018-09-06T05:36:09.721Z,54.15
2018-09-06T05:38:38.988Z,54.43
2018-09-06T05:41:08.156Z,54.47
2018-09-06T05:43:37.262Z,54.04
2018-09-06T05:46:06.772Z,54.33
2018-09-06T05:48:35.830Z,54.39
2018-09-06T05:51:04.900Z,54.23
2018-09-06T05:53:34.113Z,54.24
2018-09-06T05:56:03.332Z,54.24
2018-09-06T05:58:37.802Z,54.05
2018-09-06T06:01:07.050Z,54.06
2018-09-06T06:03:36.169Z,54.27
2018-09-06T06:06:05.256Z,54.37
2018-09-06T06:08:45.295Z,54.54
2018-09-06T06:11:14.364Z,54.10
2018-09-06T06:13:43.486Z,54.35
2018-09-06T06:16:13.383Z,54.11
2018-09-06T06:18:42.543Z,54.44
2018-09-06T06:21:12.070Z,54.37
2018-09-06T06:23:41.228Z,54.29
2018-09-06T06:26:10.487Z,54.17
2018-09-06T06:28:39.695Z,54.06
2018-09-06T06:31:08.801Z,54.23
2018-09-06T06:33:37.930Z,54.39
2018-09-06T06:36:07.112Z,54.05
2018-09-06T06:38:41.495Z,54.26
2018-09-06T06:41:16.032Z,54.51
2018-09-06T06:43:45.123Z,54.08
2018-09-06T06:46:14.248Z,54.16
2018-09-06T06:48:43.344Z,54.26
2018-09-06T06:51:12.498Z,54.16
2018-09-06T06:53:41.606Z,54.38
2018-09-06T06:56:10.730Z,54.38
2018-09-06T06:58:39.871Z,53.96
2018-09-06T07:01:09.140Z,54.09
2018-09-06T07:03:38.227Z,54.37
2018-09-06T07:06:07.497Z,53.96
2018-09-06T07:08:36.579Z,54.19
2018-09-06T07:11:05.708Z,53.97
2018-09-06T07:13:34.816Z,54.40
2018-09-06T07:16:03.903Z,54.30
2018-09-06T07:18:32.968Z,54.25
2018-09-06T07:21:02.308Z,54.22
2018-09-06T07:23:31.581Z,53.94
2018-09-06T07:26:00.790Z,54.37
2018-09-06T07:28:29.913Z,53.96
2018-09-06T07:30:59.001Z,54.33
2018-09-06T07:33:28.087Z,54.26
2018-09-06T07:35:57.156Z,54.37
2018-09-06T07:38:26.162Z,54.15
2018-09-06T07:40:55.279Z,53.93
2018-09-06T07:43:24.348Z,54.14
2018-09-06T07:45:53.440Z,53.92
2018-09-06T07:48:22.569Z,53.78
2018-09-06T07:50:51.665Z,54.06
2018-09-06T07:53:20.736Z,53.84
2018-09-06T07:55:49.737Z,54.14
2018-09-06T07:58:18.804Z,54.04
2018-09-06T08:00:47.862Z,54.11
2018-09-06T08:03:16.967Z,53.85
2018-09-06T08:05:46.106Z,54.08
2018-09-06T08:08:15.206Z,53.93
2018-09-06T08:10:44.306Z,53.82
2018-09-06T08:13:13.412Z,54.02
2018-09-06T08:15:42.493Z,54.11
2018-09-06T08:18:11.543Z,53.72
2018-09-06T08:20:40.610Z,53.86
2018-09-06T08:23:09.727Z,53.98
2018-09-06T08:25:38.726Z,53.90
2018-09-06T08:28:07.869Z,53.90
2018-09-06T08:30:36.964Z,53.92
2018-09-06T08:33:06.268Z,54.00
2018-09-06T08:35:35.372Z,53.58
2018-09-06T08:38:04.408Z,54.13
2018-09-06T08:40:33.472Z,53.69
2018-09-06T08:43:02.657Z,53.96
2018-09-06T08:45:31.814Z,53.86
2018-09-06T08:48:00.994Z,53.60
2018-09-06T08:50:30.151Z,53.95
2018-09-06T08:52:59.283Z,53.86
2018-09-06T08:55:28.341Z,53.73
2018-09-06T08:57:57.336Z,53.62
2018-09-06T09:00:26.440Z,53.78
2018-09-06T09:02:55.707Z,53.47
2018-09-06T09:05:24.820Z,53.60
2018-09-06T09:07:53.942Z,53.66
2018-09-06T09:10:23.011Z,53.77
2018-09-06T09:12:52.159Z,53.44
2018-09-06T09:15:21.397Z,53.85
2018-09-06T09:17:50.807Z,53.70
2018-09-06T09:20:20.023Z,53.79
2018-09-06T09:22:49.133Z,53.57
2018-09-06T09:25:18.191Z,53.41
2018-09-06T09:27:47.369Z,53.42
2018-09-06T09:30:16.527Z,53.69
2018-09-06T09:32:45.618Z,53.34
2018-09-06T09:35:14.683Z,53.42
2018-09-06T09:37:43.783Z,53.47
2018-09-06T09:40:12.861Z,53.83
2018-09-06T09:42:41.953Z,53.56
2018-09-06T09:45:11.267Z,53.15
2018-09-06T09:47:40.379Z,53.58
2018-09-06T09:50:09.396Z,53.63
2018-09-06T09:52:38.439Z,53.63
2018-09-06T09:55:07.539Z,53.23
2018-09-06T09:57:36.819Z,53.08
2018-09-06T10:00:06.151Z,53.42
2018-09-06T10:02:40.751Z,53.29
2018-09-06T10:05:15.021Z,53.21
2018-09-06T10:07:49.423Z,53.23
2018-09-06T10:10:18.525Z,53.44
2018-09-06T10:12:47.608Z,53.25
2018-09-06T10:15:16.607Z,53.64
2018-09-06T10:17:45.629Z,53.54
2018-09-06T10:20:14.707Z,53.22
2018-09-06T10:22:43.791Z,53.53
2018-09-06T10:25:12.923Z,53.46
2018-09-06T10:27:42.101Z,53.17
2018-09-06T10:30:11.415Z,53.64
2018-09-06T10:32:40.412Z,53.16
2018-09-06T10:35:09.511Z,53.35
2018-09-06T10:37:38.678Z,53.12
2018-09-06T10:40:07.810Z,53.50
2018-09-06T10:42:37.084Z,53.28
2018-09-06T10:45:06.184Z,53.47
2018-09-06T10:47:35.443Z,53.08
2018-09-06T10:50:04.747Z,53.44
2018-09-06T10:52:34.097Z,53.22
2018-09-06T10:55:03.163Z,53.29
2018-09-06T10:57:32.313Z,53.57
2018-09-06T11:00:01.456Z,53.01
2018-09-06T11:02:30.639Z,53.07
2018-09-06T11:04:59.704Z,53.24
2018-09-06T11:07:28.755Z,53.20
2018-09-06T11:09:57.843Z,53.00
2018-09-06T11:12:26.960Z,53.00
2018-09-06T11:14:56.053Z,53.24
2018-09-06T11:17:25.336Z,53.05
2018-09-06T11:19:54.436Z,52.90
2018-09-06T11:22:23.604Z,53.28
2018-09-06T11:24:52.839Z,52.97
2018-09-06T11:27:21.936Z,52.71
2018-09-06T11:29:51.219Z,53.01
2018-09-06T11:32:20.347Z,53.04
2018-09-06T11:34:49.393Z,52.41
2018-09-06T11:37:18.383Z,52.64
2018-09-06T11:39:47.483Z,52.23
2018-09-06T11:42:16.617Z,52.51
2018-09-06T11:44:45.810Z,52.35
2018-09-06T11:47:15.131Z,52.18
2018-09-06T11:49:44.303Z,52.36
2018-09-06T11:52:13.373Z,52.15
2018-09-06T11:54:42.560Z,51.82
2018-09-06T11:57:11.711Z,52.48
2018-09-06T11:59:40.806Z,52.26
2018-09-06T12:02:09.961Z,52.61
2018-09-06T12:04:39.175Z,52.14
2018-09-06T12:07:08.235Z,52.26
2018-09-06T12:09:37.239Z,52.59
2018-09-06T12:12:06.639Z,52.38
2018-09-06T12:14:35.795Z,52.24
2018-09-06T12:17:04.906Z,52.31
2018-09-06T12:19:34.035Z,52.50
2018-09-06T12:22:03.805Z,52.49
2018-09-06T12:24:32.896Z,52.62
2018-09-06T12:27:01.997Z,52.13
2018-09-06T12:29:31.093Z,52.46
2018-09-06T12:32:00.164Z,52.58
2018-09-06T12:34:29.500Z,52.45
2018-09-06T12:36:58.665Z,52.40
2018-09-06T12:39:27.709Z,52.67
2018-09-06T12:41:56.862Z,52.30
2018-09-06T12:44:25.929Z,52.59
2018-09-06T12:46:55.050Z,52.38
2018-09-06T12:49:24.154Z,52.22
2018-09-06T12:51:53.232Z,52.26
2018-09-06T12:54:24.604Z,52.34
2018-09-06T12:56:54.918Z,52.26
2018-09-06T12:59:24.281Z,52.53
2018-09-06T13:01:53.437Z,52.37
2018-09-06T13:04:22.532Z,52.53
2018-09-06T13:06:51.636Z,52.27
2018-09-06T13:09:20.736Z,52.37
2018-09-06T13:11:49.824Z,52.72
2018-09-06T13:14:19.003Z,52.30
2018-09-06T13:16:48.096Z,52.43
2018-09-06T13:19:17.207Z,52.72
2018-09-06T13:21:46.404Z,52.59
2018-09-06T13:24:15.525Z,52.57
2018-09-06T13:26:44.661Z,52.83
2018-09-06T13:29:13.784Z,52.37
2018-09-06T13:31:43.237Z,52.49
2018-09-06T13:34:12.535Z,52.35
2018-09-06T13:36:41.706Z,52.59
2018-09-06T13:39:11.584Z,52.61
2018-09-06T13:41:40.709Z,52.61
2018-09-06T13:44:09.977Z,52.40
2018-09-06T13:46:39.088Z,52.73
2018-09-06T13:49:08.181Z,52.67
2018-09-06T13:51:37.267Z,52.60
2018-09-06T13:54:06.367Z,52.45
2018-09-06T13:56:35.464Z,52.74
2018-09-06T13:59:04.686Z,52.58
2018-09-06T14:01:33.806Z,52.75
2018-09-06T14:04:02.981Z,52.65
2018-09-06T14:06:32.119Z,52.51
2018-09-06T14:09:05.380Z,52.55
2018-09-06T14:11:34.758Z,53.00
2018-09-06T14:14:03.909Z,52.57
2018-09-06T14:16:33.454Z,52.70
2018-09-06T14:19:02.724Z,53.06
2018-09-06T14:21:31.873Z,52.51
2018-09-06T14:24:00.977Z,52.84
2018-09-06T14:26:30.443Z,52.58
2018-09-06T14:28:59.527Z,52.70
2018-09-06T14:31:28.610Z,52.99
2018-09-06T14:33:57.692Z,52.60
2018-09-06T14:36:26.775Z,52.68
2018-09-06T14:38:56.004Z,52.61
2018-09-06T14:41:25.561Z,52.54
2018-09-06T14:43:54.700Z,52.72
2018-09-06T14:46:23.947Z,52.97
2018-09-06T14:48:53.149Z,52.87
2018-09-06T14:51:22.251Z,52.67
2018-09-06T14:53:51.324Z,52.55
2018-09-06T14:56:20.436Z,52.67
2018-09-06T14:58:49.522Z,52.42
2018-09-06T15:01:18.634Z,52.41
2018-09-06T15:03:47.896Z,52.43
2018-09-06T15:06:16.992Z,52.33
2018-09-06T15:08:46.104Z,52.18
2018-09-06T15:11:15.224Z,52.33
2018-09-06T15:13:44.427Z,52.21
2018-09-06T15:16:13.696Z,52.11
2018-09-06T15:18:42.812Z,52.42
2018-09-06T15:21:11.905Z,51.68
2018-09-06T15:23:40.992Z,51.94
2018-09-06T15:26:10.128Z,52.21
2018-09-06T15:28:39.193Z,52.26
2018-09-06T15:31:08.626Z,52.36
2018-09-06T15:33:37.797Z,51.93
2018-09-06T15:36:06.913Z,52.14
2018-09-06T15:38:36.012Z,52.33
2018-09-06T15:41:05.296Z,51.88
2018-09-06T15:43:34.492Z,52.29
2018-09-06T15:46:03.601Z,52.05
2018-09-06T15:48:38.468Z,52.39
2018-09-06T15:51:07.722Z,52.32
2018-09-06T15:53:36.964Z,52.14
2018-09-06T15:56:06.363Z,52.42
2018-09-06T15:58:35.453Z,52.28
2018-09-06T16:01:04.609Z,52.25
2018-09-06T16:03:33.716Z,52.29
2018-09-06T16:06:02.904Z,52.13
2018-09-06T16:08:31.984Z,52.00
2018-09-06T16:11:01.102Z,52.11
2018-09-06T16:13:30.191Z,51.67
2018-09-06T16:15:59.258Z,51.98
2018-09-06T16:18:28.355Z,52.17
2018-09-06T16:20:57.485Z,51.68
2018-09-06T16:23:26.608Z,51.29
2018-09-06T16:25:55.882Z,51.53
2018-09-06T16:28:25.085Z,51.26
2018-09-06T16:30:54.196Z,51.35
2018-09-06T16:33:23.362Z,51.47
2018-09-06T16:35:52.714Z,51.43
2018-09-06T16:38:21.952Z,51.32
2018-09-06T16:40:51.041Z,50.43
2018-09-06T16:43:20.466Z,51.02
2018-09-06T16:45:49.542Z,51.06
2018-09-06T16:48:18.671Z,50.96
2018-09-06T16:50:47.764Z,51.00
2018-09-06T16:53:16.850Z,50.87
2018-09-06T16:55:45.942Z,51.23
2018-09-06T16:58:15.090Z,50.89
2018-09-06T17:00:44.328Z,51.05
2018-09-06T17:03:13.702Z,50.73
2018-09-06T17:05:43.088Z,50.77
2018-09-06T17:08:12.257Z,50.65
2018-09-06T17:10:41.440Z,50.60
2018-09-06T17:13:10.525Z,50.29
2018-09-06T17:15:39.608Z,50.16
2018-09-06T17:18:08.734Z,50.15
2018-09-06T17:20:37.871Z,50.26
2018-09-06T17:23:07.038Z,50.01
2018-09-06T17:25:36.230Z,50.39
2018-09-06T17:28:05.328Z,50.06
2018-09-06T17:30:34.437Z,50.58
2018-09-06T17:33:03.731Z,50.14
2018-09-06T17:35:33.118Z,50.60
2018-09-06T17:38:02.330Z,50.20
2018-09-06T17:40:31.415Z,50.59
2018-09-06T17:43:00.581Z,50.63
2018-09-06T17:45:29.922Z,50.65
2018-09-06T17:47:59.025Z,50.33
2018-09-06T17:50:28.128Z,50.38
2018-09-06T17:52:57.312Z,50.61
2018-09-06T17:55:26.453Z,50.49
2018-09-06T17:57:55.612Z,50.51
2018-09-06T18:00:24.685Z,50.59
2018-09-06T18:02:53.794Z,50.53
2018-09-06T18:05:22.838Z,50.43
2018-09-06T18:07:51.988Z,50.48
2018-09-06T18:10:21.070Z,50.48
2018-09-06T18:12:50.165Z,50.59
2018-09-06T18:15:19.252Z,50.74
2018-09-06T18:17:48.446Z,50.21
2018-09-06T18:20:17.678Z,50.45
2018-09-06T18:22:46.818Z,50.46
2018-09-06T18:25:16.013Z,50.66
2018-09-06T18:27:45.279Z,50.19
2018-09-06T18:30:14.364Z,50.52
2018-09-06T18:32:43.756Z,50.27
2018-09-06T18:35:12.833Z,50.15
2018-09-06T18:37:41.910Z,50.48
2018-09-06T18:40:11.112Z,50.19
2018-09-06T18:42:40.222Z,50.31
2018-09-06T18:45:09.365Z,50.36
2018-09-06T18:47:38.576Z,50.55
2018-09-06T18:50:07.859Z,50.33
2018-09-06T18:52:36.971Z,50.50
2018-09-06T18:55:06.347Z,50.07
2018-09-06T18:57:35.509Z,50.40
2018-09-06T19:00:04.643Z,50.65
2018-09-06T19:02:33.713Z,50.58
2018-09-06T19:05:02.778Z,50.41
2018-09-06T19:07:31.922Z,50.42
2018-09-06T19:10:00.992Z,50.67
2018-09-06T19:12:30.080Z,50.22
2018-09-06T19:14:59.158Z,50.81
2018-09-06T19:17:28.242Z,50.38
2018-09-06T19:19:57.357Z,50.62
2018-09-06T19:22:26.502Z,50.93
2018-09-06T19:24:55.578Z,50.72
2018-09-06T19:27:24.764Z,50.62
2018-09-06T19:29:53.866Z,50.58
2018-09-06T19:32:22.933Z,50.37
2018-09-06T19:34:52.128Z,50.52
2018-09-06T19:37:21.254Z,50.52
2018-09-06T19:39:50.400Z,50.33
2018-09-06T19:42:19.571Z,50.71
2018-09-06T19:44:48.853Z,50.61
2018-09-06T19:47:17.959Z,50.21
2018-09-06T19:49:47.071Z,50.43
2018-09-06T19:52:16.150Z,50.28
2018-09-06T19:54:45.390Z,50.17
2018-09-06T19:57:14.553Z,50.37
2018-09-06T19:59:43.836Z,50.30
2018-09-06T20:02:13.104Z,50.49
2018-09-06T20:04:42.274Z,50.60
2018-09-06T20:07:11.550Z,50.56
2018-09-06T20:09:40.735Z,50.60
2018-09-06T20:12:09.837Z,50.65
2018-09-06T20:14:38.898Z,50.36
2018-09-06T20:17:08.060Z,50.72
2018-09-06T20:19:37.151Z,50.44
2018-09-06T20:22:08.240Z,50.54
2018-09-06T20:24:37.371Z,50.65
2018-09-06T20:27:06.471Z,50.49
2018-09-06T20:29:35.573Z,50.70
2018-09-06T20:32:04.655Z,50.76
2018-09-06T20:34:33.726Z,51.00
2018-09-06T20:37:02.984Z,50.98
2018-09-06T20:39:32.410Z,50.99
2018-09-06T20:42:01.553Z,50.96
2018-09-06T20:44:30.847Z,50.87
2018-09-06T20:47:00.205Z,50.38
2018-09-06T20:49:29.348Z,50.43
2018-09-06T20:51:58.451Z,50.68
2018-09-06T20:54:33.067Z,50.66
2018-09-06T20:57:02.183Z,50.70
2018-09-06T20:59:31.271Z,50.70
2018-09-06T21:02:11.368Z,50.80
2018-09-06T21:04:40.434Z,50.94
2018-09-06T21:07:10.170Z,50.69
2018-09-06T21:09:39.234Z,50.66
2018-09-06T21:12:08.402Z,50.96
2018-09-06T21:14:37.579Z,50.85
2018-09-06T21:17:06.793Z,50.52
2018-09-06T21:19:35.890Z,50.86
2018-09-06T21:22:05.095Z,50.85
2018-09-06T21:24:34.359Z,50.89
2018-09-06T21:27:03.500Z,50.87
2018-09-06T21:29:32.599Z,50.78
2018-09-06T21:32:01.760Z,50.59
2018-09-06T21:34:30.870Z,50.99
2018-09-06T21:36:59.987Z,50.78
2018-09-06T21:39:29.086Z,50.73
2018-09-06T21:41:58.158Z,50.61
2018-09-06T21:44:27.299Z,51.01
2018-09-06T21:46:56.391Z,50.59
2018-09-06T21:49:25.439Z,51.05
2018-09-06T21:51:54.670Z,51.00
2018-09-06T21:54:23.787Z,50.72
2018-09-06T21:56:52.859Z,50.68
2018-09-06T21:59:21.962Z,51.06
2018-09-06T22:01:51.802Z,50.62
2018-09-06T22:04:20.868Z,50.95
2018-09-06T22:06:50.130Z,50.48
2018-09-06T22:09:19.270Z,50.89
2018-09-06T22:11:48.780Z,51.04
2018-09-06T22:14:17.850Z,50.62
2018-09-06T22:16:47.225Z,50.56
2018-09-06T22:19:16.274Z,50.76
2018-09-06T22:21:45.647Z,50.79
2018-09-06T22:24:14.727Z,50.70
2018-09-06T22:26:43.828Z,50.84
2018-09-06T22:29:12.874Z,50.56
2018-09-06T22:31:41.946Z,50.83
2018-09-06T22:34:11.027Z,50.57
2018-09-06T22:36:40.149Z,51.02
2018-09-06T22:39:09.527Z,50.75
2018-09-06T22:41:38.606Z,50.70
2018-09-06T22:44:07.924Z,50.91
2018-09-06T22:46:37.211Z,50.75
2018-09-06T22:49:06.336Z,50.36
2018-09-06T22:51:38.380Z,50.67
2018-09-06T22:54:07.445Z,50.38
2018-09-06T22:56:36.584Z,50.60
2018-09-06T22:59:06.036Z,50.22
2018-09-06T23:01:35.105Z,50.57
2018-09-06T23:04:04.197Z,50.59
2018-09-06T23:06:33.259Z,50.83
2018-09-06T23:09:02.659Z,50.61
2018-09-06T23:11:31.784Z,50.57
2018-09-06T23:14:00.863Z,50.97
2018-09-06T23:16:29.964Z,50.83
2018-09-06T23:18:59.077Z,50.89
2018-09-06T23:21:28.167Z,50.66
2018-09-06T23:23:57.219Z,50.68
2018-09-06T23:26:26.342Z,50.68
2018-09-06T23:28:55.446Z,50.64
2018-09-06T23:31:24.539Z,50.38
2018-09-06T23:33:53.617Z,50.56
2018-09-06T23:36:22.753Z,50.39
2018-09-06T23:38:51.790Z,50.74
2018-09-06T23:41:20.915Z,50.85
2018-09-06T23:43:50.007Z,50.78
2018-09-06T23:46:19.099Z,50.66
2018-09-06T23:48:48.200Z,50.81
2018-09-06T23:51:17.312Z,50.61
2018-09-06T23:53:46.387Z,50.46
2018-09-06T23:56:15.463Z,50.82
2018-09-06T23:58:46.336Z,50.70
